sensor_id;sensor_type;location;lat;lon;timestamp;temperature;humidity
27896;DHT22;15241;48.374;10.876;2023-03-14T00:02:54;12.30;99.90
27896;DHT22;15241;48.374;10.876;2023-03-14T00:07:53;12.20;99.90
27896;DHT22;15241;48.374;10.876;2023-03-14T00:12:52;12.10;99.90
27896;DHT22;15241;48.374;10.876;2023-03-14T00:17:51;12.00;99.90
27896;DHT22;15241;48.374;10.876;2023-03-14T00:22:53;11.90;99.90
27896;DHT22;15241;48.374;10.876;2023-03-14T00:27:53;11.90;99.90
27896;DHT22;15241;48.374;10.876;2023-03-14T00:32:52;11.80;99.90
27896;DHT22;15241;48.374;10.876;2023-03-14T00:37:50;11.90;99.90
27896;DHT22;15241;48.374;10.876;2023-03-14T00:47:58;11.60;99.90
27896;DHT22;15241;48.374;10.876;2023-03-14T00:52:57;11.40;99.90
27896;DHT22;15241;48.374;10.876;2023-03-14T00:57:56;11.40;99.90
27896;DHT22;15241;48.374;10.876;2023-03-14T01:02:55;11.30;99.90
27896;DHT22;15241;48.374;10.876;2023-03-14T01:07:54;11.30;99.90
27896;DHT22;15241;48.374;10.876;2023-03-14T01:12:54;11.20;99.90
27896;DHT22;15241;48.374;10.876;2023-03-14T01:17:53;11.30;99.90
27896;DHT22;15241;48.374;10.876;2023-03-14T01:22:52;11.20;99.90
27896;DHT22;15241;48.374;10.876;2023-03-14T01:27:51;11.10;99.90
27896;DHT22;15241;48.374;10.876;2023-03-14T01:32:50;11.10;99.90
27896;DHT22;15241;48.374;10.876;2023-03-14T01:37:48;11.00;99.90
27896;DHT22;15241;48.374;10.876;2023-03-14T01:42:54;10.80;99.90
27896;DHT22;15241;48.374;10.876;2023-03-14T01:47:54;10.70;99.90
27896;DHT22;15241;48.374;10.876;2023-03-14T01:52:53;10.60;99.90
27896;DHT22;15241;48.374;10.876;2023-03-14T01:57:54;10.30;99.90
27896;DHT22;15241;48.374;10.876;2023-03-14T02:02:56;10.20;99.90
27896;DHT22;15241;48.374;10.876;2023-03-14T02:07:57;10.10;99.90
27896;DHT22;15241;48.374;10.876;2023-03-14T02:12:59;10.00;99.90
27896;DHT22;15241;48.374;10.876;2023-03-14T02:17:59;10.00;99.90
27896;DHT22;15241;48.374;10.876;2023-03-14T02:22:58;10.10;99.90
27896;DHT22;15241;48.374;10.876;2023-03-14T02:28:01;10.20;99.90
27896;DHT22;15241;48.374;10.876;2023-03-14T02:33:03;10.10;99.90
27896;DHT22;15241;48.374;10.876;2023-03-14T02:38:05;10.20;99.90
27896;DHT22;15241;48.374;10.876;2023-03-14T02:43:04;10.40;99.90
27896;DHT22;15241;48.374;10.876;2023-03-14T02:48:06;10.40;99.90
27896;DHT22;15241;48.374;10.876;2023-03-14T02:53:06;10.50;99.90
27896;DHT22;15241;48.374;10.876;2023-03-14T02:58:05;10.40;99.90
27896;DHT22;15241;48.374;10.876;2023-03-14T03:03:04;10.40;99.90
27896;DHT22;15241;48.374;10.876;2023-03-14T03:08:03;10.40;99.90
27896;DHT22;15241;48.374;10.876;2023-03-14T03:13:05;10.40;99.90
27896;DHT22;15241;48.374;10.876;2023-03-14T03:18:06;10.30;99.90
27896;DHT22;15241;48.374;10.876;2023-03-14T03:23:05;10.30;99.90
27896;DHT22;15241;48.374;10.876;2023-03-14T03:28:05;10.40;99.90
27896;DHT22;15241;48.374;10.876;2023-03-14T03:33:04;10.40;99.90
27896;DHT22;15241;48.374;10.876;2023-03-14T03:38:03;10.40;99.90
27896;DHT22;15241;48.374;10.876;2023-03-14T03:43:02;10.40;99.90
27896;DHT22;15241;48.374;10.876;2023-03-14T03:48:01;10.20;99.90
27896;DHT22;15241;48.374;10.876;2023-03-14T03:53:00;10.10;99.90
27896;DHT22;15241;48.374;10.876;2023-03-14T03:57:59;10.00;99.90
27896;DHT22;15241;48.374;10.876;2023-03-14T04:02:58;10.00;99.90
27896;DHT22;15241;48.374;10.876;2023-03-14T04:07:57;9.90;99.90
27896;DHT22;15241;48.374;10.876;2023-03-14T04:12:56;9.90;99.90
27896;DHT22;15241;48.374;10.876;2023-03-14T04:17:58;9.80;99.90
27896;DHT22;15241;48.374;10.876;2023-03-14T04:22:57;9.90;99.90
27896;DHT22;15241;48.374;10.876;2023-03-14T04:33:03;9.90;99.90
27896;DHT22;15241;48.374;10.876;2023-03-14T04:38:02;9.80;99.90
27896;DHT22;15241;48.374;10.876;2023-03-14T04:43:01;9.70;99.90
27896;DHT22;15241;48.374;10.876;2023-03-14T04:48:00;9.70;99.90
27896;DHT22;15241;48.374;10.876;2023-03-14T04:52:59;9.70;99.90
27896;DHT22;15241;48.374;10.876;2023-03-14T04:57:58;9.70;99.90
27896;DHT22;15241;48.374;10.876;2023-03-14T05:02:57;9.70;99.90
27896;DHT22;15241;48.374;10.876;2023-03-14T05:07:56;9.70;99.90
27896;DHT22;15241;48.374;10.876;2023-03-14T05:12:55;9.70;99.90
27896;DHT22;15241;48.374;10.876;2023-03-14T05:17:54;9.70;99.90
27896;DHT22;15241;48.374;10.876;2023-03-14T05:22:53;9.60;99.90
27896;DHT22;15241;48.374;10.876;2023-03-14T05:27:54;9.60;99.90
27896;DHT22;15241;48.374;10.876;2023-03-14T05:32:53;9.70;99.90
27896;DHT22;15241;48.374;10.876;2023-03-14T05:37:52;9.70;99.90
27896;DHT22;15241;48.374;10.876;2023-03-14T05:42:51;9.70;99.90
27896;DHT22;15241;48.374;10.876;2023-03-14T05:47:50;9.70;99.90
27896;DHT22;15241;48.374;10.876;2023-03-14T05:52:49;9.60;99.90
27896;DHT22;15241;48.374;10.876;2023-03-14T05:57:48;9.60;99.90
27896;DHT22;15241;48.374;10.876;2023-03-14T06:02:48;9.60;99.90
27896;DHT22;15241;48.374;10.876;2023-03-14T06:07:47;9.70;99.90
27896;DHT22;15241;48.374;10.876;2023-03-14T06:12:46;9.70;99.90
27896;DHT22;15241;48.374;10.876;2023-03-14T06:17:44;9.60;99.90
27896;DHT22;15241;48.374;10.876;2023-03-14T06:22:43;9.60;99.90
27896;DHT22;15241;48.374;10.876;2023-03-14T06:27:45;9.80;99.90
27896;DHT22;15241;48.374;10.876;2023-03-14T06:32:44;9.70;99.90
27896;DHT22;15241;48.374;10.876;2023-03-14T06:37:43;9.90;99.90
27896;DHT22;15241;48.374;10.876;2023-03-14T06:42:42;9.90;99.90
27896;DHT22;15241;48.374;10.876;2023-03-14T06:47:41;10.00;99.90
27896;DHT22;15241;48.374;10.876;2023-03-14T06:52:40;10.10;99.90
27896;DHT22;15241;48.374;10.876;2023-03-14T06:57:39;10.40;99.90
27896;DHT22;15241;48.374;10.876;2023-03-14T07:02:38;10.40;99.90
27896;DHT22;15241;48.374;10.876;2023-03-14T07:07:40;10.40;99.90
27896;DHT22;15241;48.374;10.876;2023-03-14T07:12:39;10.50;99.90
27896;DHT22;15241;48.374;10.876;2023-03-14T07:17:38;10.50;99.90
27896;DHT22;15241;48.374;10.876;2023-03-14T07:22:37;10.50;99.90
27896;DHT22;15241;48.374;10.876;2023-03-14T07:27:36;10.40;99.90
27896;DHT22;15241;48.374;10.876;2023-03-14T07:32:35;10.40;99.90
27896;DHT22;15241;48.374;10.876;2023-03-14T07:37:34;10.50;99.90
27896;DHT22;15241;48.374;10.876;2023-03-14T07:42:33;10.50;99.90
27896;DHT22;15241;48.374;10.876;2023-03-14T07:47:31;10.60;99.90
27896;DHT22;15241;48.374;10.876;2023-03-14T07:52:30;10.60;99.90
27896;DHT22;15241;48.374;10.876;2023-03-14T07:57:29;10.70;99.90
27896;DHT22;15241;48.374;10.876;2023-03-14T08:02:28;10.70;99.90
27896;DHT22;15241;48.374;10.876;2023-03-14T08:07:27;10.80;99.90
27896;DHT22;15241;48.374;10.876;2023-03-14T08:12:28;11.00;99.90
27896;DHT22;15241;48.374;10.876;2023-03-14T08:17:27;11.10;99.90
27896;DHT22;15241;48.374;10.876;2023-03-14T08:22:26;11.10;99.90
27896;DHT22;15241;48.374;10.876;2023-03-14T08:27:25;11.20;99.90
27896;DHT22;15241;48.374;10.876;2023-03-14T08:32:24;11.30;99.90
27896;DHT22;15241;48.374;10.876;2023-03-14T08:37:24;11.50;99.90
27896;DHT22;15241;48.374;10.876;2023-03-14T08:42:25;11.40;99.90
27896;DHT22;15241;48.374;10.876;2023-03-14T08:47:25;11.60;99.90
27896;DHT22;15241;48.374;10.876;2023-03-14T08:52:24;11.70;99.90
27896;DHT22;15241;48.374;10.876;2023-03-14T08:57:23;12.10;99.90
27896;DHT22;15241;48.374;10.876;2023-03-14T09:02:22;12.30;99.90
27896;DHT22;15241;48.374;10.876;2023-03-14T09:07:21;12.60;99.90
27896;DHT22;15241;48.374;10.876;2023-03-14T09:12:20;12.60;99.90
27896;DHT22;15241;48.374;10.876;2023-03-14T09:17:19;12.80;99.90
27896;DHT22;15241;48.374;10.876;2023-03-14T09:22:18;12.90;99.90
27896;DHT22;15241;48.374;10.876;2023-03-14T09:27:17;13.10;99.90
27896;DHT22;15241;48.374;10.876;2023-03-14T09:32:16;13.20;99.90
27896;DHT22;15241;48.374;10.876;2023-03-14T09:37:15;13.70;99.90
27896;DHT22;15241;48.374;10.876;2023-03-14T09:42:16;13.80;99.90
27896;DHT22;15241;48.374;10.876;2023-03-14T09:47:17;14.10;99.90
27896;DHT22;15241;48.374;10.876;2023-03-14T09:52:19;14.20;99.90
27896;DHT22;15241;48.374;10.876;2023-03-14T09:57:20;14.70;99.90
27896;DHT22;15241;48.374;10.876;2023-03-14T10:02:22;14.80;99.90
27896;DHT22;15241;48.374;10.876;2023-03-14T10:07:25;15.10;99.90
27896;DHT22;15241;48.374;10.876;2023-03-14T10:12:31;15.20;99.90
27896;DHT22;15241;48.374;10.876;2023-03-14T10:17:38;15.10;99.90
27896;DHT22;15241;48.374;10.876;2023-03-14T10:22:37;15.60;99.90
27896;DHT22;15241;48.374;10.876;2023-03-14T10:27:36;15.70;99.90
27896;DHT22;15241;48.374;10.876;2023-03-14T10:32:37;15.90;99.90
27896;DHT22;15241;48.374;10.876;2023-03-14T10:37:47;15.80;99.90
27896;DHT22;15241;48.374;10.876;2023-03-14T10:42:41;15.70;99.90
27896;DHT22;15241;48.374;10.876;2023-03-14T10:47:49;15.60;99.90
27896;DHT22;15241;48.374;10.876;2023-03-14T10:52:49;15.20;99.90
27896;DHT22;15241;48.374;10.876;2023-03-14T10:57:48;15.20;99.90
27896;DHT22;15241;48.374;10.876;2023-03-14T11:02:55;15.00;99.90
27896;DHT22;15241;48.374;10.876;2023-03-14T11:07:58;14.70;99.90
27896;DHT22;15241;48.374;10.876;2023-03-14T11:18:23;14.80;99.90
27896;DHT22;15241;48.374;10.876;2023-03-14T11:23:24;15.30;99.90
27896;DHT22;15241;48.374;10.876;2023-03-14T11:28:28;15.90;99.90
27896;DHT22;15241;48.374;10.876;2023-03-14T11:38:40;15.20;99.90
27896;DHT22;15241;48.374;10.876;2023-03-14T11:43:41;14.90;99.90
27896;DHT22;15241;48.374;10.876;2023-03-14T11:48:45;14.60;99.90
27896;DHT22;15241;48.374;10.876;2023-03-14T11:53:52;14.40;99.90
27896;DHT22;15241;48.374;10.876;2023-03-14T11:58:57;14.20;99.90
27896;DHT22;15241;48.374;10.876;2023-03-14T12:03:58;14.20;99.90
27896;DHT22;15241;48.374;10.876;2023-03-14T12:08:59;14.20;99.90
27896;DHT22;15241;48.374;10.876;2023-03-14T12:14:01;14.20;99.90
27896;DHT22;15241;48.374;10.876;2023-03-14T12:19:25;14.30;99.90
27896;DHT22;15241;48.374;10.876;2023-03-14T12:24:22;14.50;99.90
27896;DHT22;15241;48.374;10.876;2023-03-14T12:29:22;14.40;99.90
27896;DHT22;15241;48.374;10.876;2023-03-14T12:34:29;14.10;99.90
27896;DHT22;15241;48.374;10.876;2023-03-14T12:39:37;14.00;99.90
27896;DHT22;15241;48.374;10.876;2023-03-14T12:44:44;13.90;99.90
27896;DHT22;15241;48.374;10.876;2023-03-14T12:49:43;13.60;99.90
27896;DHT22;15241;48.374;10.876;2023-03-14T12:54:44;13.20;99.90
27896;DHT22;15241;48.374;10.876;2023-03-14T12:59:48;13.10;99.90
27896;DHT22;15241;48.374;10.876;2023-03-14T13:04:50;12.90;99.90
27896;DHT22;15241;48.374;10.876;2023-03-14T13:09:53;12.90;99.90
27896;DHT22;15241;48.374;10.876;2023-03-14T13:14:54;13.10;99.90
27896;DHT22;15241;48.374;10.876;2023-03-14T13:19:56;13.10;99.90
27896;DHT22;15241;48.374;10.876;2023-03-14T13:25:01;12.80;99.90
27896;DHT22;15241;48.374;10.876;2023-03-14T13:30:11;12.30;99.90
27896;DHT22;15241;48.374;10.876;2023-03-14T13:35:16;11.80;99.90
27896;DHT22;15241;48.374;10.876;2023-03-14T13:40:28;11.50;99.90
27896;DHT22;15241;48.374;10.876;2023-03-14T13:45:27;11.40;99.90
27896;DHT22;15241;48.374;10.876;2023-03-14T13:50:26;11.10;99.90
27896;DHT22;15241;48.374;10.876;2023-03-14T13:55:25;11.10;99.90
27896;DHT22;15241;48.374;10.876;2023-03-14T14:00:28;11.10;99.90
27896;DHT22;15241;48.374;10.876;2023-03-14T14:05:28;10.70;99.90
27896;DHT22;15241;48.374;10.876;2023-03-14T14:10:29;10.70;99.90
27896;DHT22;15241;48.374;10.876;2023-03-14T14:15:31;10.40;99.90
27896;DHT22;15241;48.374;10.876;2023-03-14T14:20:32;10.20;99.90
27896;DHT22;15241;48.374;10.876;2023-03-14T14:25:32;10.00;99.90
27896;DHT22;15241;48.374;10.876;2023-03-14T14:30:33;9.80;99.90
27896;DHT22;15241;48.374;10.876;2023-03-14T14:35:34;9.70;99.90
27896;DHT22;15241;48.374;10.876;2023-03-14T14:40:34;9.70;99.90
27896;DHT22;15241;48.374;10.876;2023-03-14T14:45:34;9.80;99.90
27896;DHT22;15241;48.374;10.876;2023-03-14T14:50:36;9.60;99.90
27896;DHT22;15241;48.374;10.876;2023-03-14T15:00:50;11.40;99.90
27896;DHT22;15241;48.374;10.876;2023-03-14T15:05:49;11.00;99.90
27896;DHT22;15241;48.374;10.876;2023-03-14T15:10:49;11.60;99.90
27896;DHT22;15241;48.374;10.876;2023-03-14T15:15:48;12.70;99.90
27896;DHT22;15241;48.374;10.876;2023-03-14T15:20:48;12.80;99.90
27896;DHT22;15241;48.374;10.876;2023-03-14T15:25:48;12.10;99.90
27896;DHT22;15241;48.374;10.876;2023-03-14T15:30:47;11.80;99.90
27896;DHT22;15241;48.374;10.876;2023-03-14T15:35:46;11.20;99.90
27896;DHT22;15241;48.374;10.876;2023-03-14T15:40:47;11.40;99.90
27896;DHT22;15241;48.374;10.876;2023-03-14T15:45:46;10.90;99.90
27896;DHT22;15241;48.374;10.876;2023-03-14T15:50:46;10.60;99.90
27896;DHT22;15241;48.374;10.876;2023-03-14T15:55:47;10.70;99.90
27896;DHT22;15241;48.374;10.876;2023-03-14T16:00:46;10.80;99.90
27896;DHT22;15241;48.374;10.876;2023-03-14T16:05:45;11.20;99.90
27896;DHT22;15241;48.374;10.876;2023-03-14T16:10:44;10.80;99.90
27896;DHT22;15241;48.374;10.876;2023-03-14T16:15:51;10.70;99.90
27896;DHT22;15241;48.374;10.876;2023-03-14T16:21:01;10.70;99.90
27896;DHT22;15241;48.374;10.876;2023-03-14T16:26:03;10.70;99.90
27896;DHT22;15241;48.374;10.876;2023-03-14T16:31:05;10.50;99.90
27896;DHT22;15241;48.374;10.876;2023-03-14T16:36:07;10.30;99.90
27896;DHT22;15241;48.374;10.876;2023-03-14T16:41:09;9.90;99.90
27896;DHT22;15241;48.374;10.876;2023-03-14T16:46:11;9.90;99.90
27896;DHT22;15241;48.374;10.876;2023-03-14T16:51:11;9.70;99.90
27896;DHT22;15241;48.374;10.876;2023-03-14T16:56:11;9.70;99.90
27896;DHT22;15241;48.374;10.876;2023-03-14T17:01:12;9.60;99.90
27896;DHT22;15241;48.374;10.876;2023-03-14T17:06:18;9.40;99.90
27896;DHT22;15241;48.374;10.876;2023-03-14T17:11:17;9.10;99.90
27896;DHT22;15241;48.374;10.876;2023-03-14T17:16:16;9.00;99.90
27896;DHT22;15241;48.374;10.876;2023-03-14T17:21:15;8.90;99.90
27896;DHT22;15241;48.374;10.876;2023-03-14T17:26:17;8.70;99.90
27896;DHT22;15241;48.374;10.876;2023-03-14T17:31:17;8.70;99.90
27896;DHT22;15241;48.374;10.876;2023-03-14T17:36:17;8.60;99.90
27896;DHT22;15241;48.374;10.876;2023-03-14T17:41:16;8.50;99.90
27896;DHT22;15241;48.374;10.876;2023-03-14T17:46:15;8.40;99.90
27896;DHT22;15241;48.374;10.876;2023-03-14T17:51:15;8.40;99.90
27896;DHT22;15241;48.374;10.876;2023-03-14T17:56:15;8.40;99.90
27896;DHT22;15241;48.374;10.876;2023-03-14T18:01:15;8.30;99.90
27896;DHT22;15241;48.374;10.876;2023-03-14T18:06:16;8.20;99.90
27896;DHT22;15241;48.374;10.876;2023-03-14T18:11:15;8.10;99.90
27896;DHT22;15241;48.374;10.876;2023-03-14T18:16:15;8.10;99.90
27896;DHT22;15241;48.374;10.876;2023-03-14T18:21:17;8.00;99.90
27896;DHT22;15241;48.374;10.876;2023-03-14T18:26:16;8.10;99.90
27896;DHT22;15241;48.374;10.876;2023-03-14T18:31:15;8.00;99.90
27896;DHT22;15241;48.374;10.876;2023-03-14T18:36:15;8.10;99.90
27896;DHT22;15241;48.374;10.876;2023-03-14T18:41:16;8.00;99.90
27896;DHT22;15241;48.374;10.876;2023-03-14T18:46:15;8.00;99.90
27896;DHT22;15241;48.374;10.876;2023-03-14T18:51:16;8.00;99.90
27896;DHT22;15241;48.374;10.876;2023-03-14T18:56:15;8.00;99.90
27896;DHT22;15241;48.374;10.876;2023-03-14T19:01:14;8.00;99.90
27896;DHT22;15241;48.374;10.876;2023-03-14T19:06:14;8.10;99.90
27896;DHT22;15241;48.374;10.876;2023-03-14T19:11:14;8.10;99.90
27896;DHT22;15241;48.374;10.876;2023-03-14T19:16:14;8.10;99.90
27896;DHT22;15241;48.374;10.876;2023-03-14T19:21:20;8.10;99.90
27896;DHT22;15241;48.374;10.876;2023-03-14T19:26:16;8.10;99.90
27896;DHT22;15241;48.374;10.876;2023-03-14T19:31:15;8.20;99.90
27896;DHT22;15241;48.374;10.876;2023-03-14T19:36:20;8.30;99.90
27896;DHT22;15241;48.374;10.876;2023-03-14T19:41:22;8.30;99.90
27896;DHT22;15241;48.374;10.876;2023-03-14T19:46:22;8.40;99.90
27896;DHT22;15241;48.374;10.876;2023-03-14T19:51:21;8.40;99.90
27896;DHT22;15241;48.374;10.876;2023-03-14T19:56:20;8.50;99.90
27896;DHT22;15241;48.374;10.876;2023-03-14T20:01:19;8.40;99.90
27896;DHT22;15241;48.374;10.876;2023-03-14T20:06:21;8.40;99.90
27896;DHT22;15241;48.374;10.876;2023-03-14T20:11:19;8.30;99.90
27896;DHT22;15241;48.374;10.876;2023-03-14T20:16:18;7.90;99.90
27896;DHT22;15241;48.374;10.876;2023-03-14T20:21:17;7.70;99.90
27896;DHT22;15241;48.374;10.876;2023-03-14T20:26:16;7.40;99.90
27896;DHT22;15241;48.374;10.876;2023-03-14T20:31:15;7.30;99.90
27896;DHT22;15241;48.374;10.876;2023-03-14T20:36:14;7.20;99.90
27896;DHT22;15241;48.374;10.876;2023-03-14T20:41:13;7.10;99.90
27896;DHT22;15241;48.374;10.876;2023-03-14T20:46:12;6.90;99.90
27896;DHT22;15241;48.374;10.876;2023-03-14T20:51:12;6.80;99.90
27896;DHT22;15241;48.374;10.876;2023-03-14T20:56:11;6.70;99.90
27896;DHT22;15241;48.374;10.876;2023-03-14T21:01:10;6.60;99.90
27896;DHT22;15241;48.374;10.876;2023-03-14T21:06:12;6.50;99.90
27896;DHT22;15241;48.374;10.876;2023-03-14T21:11:11;6.50;99.90
27896;DHT22;15241;48.374;10.876;2023-03-14T21:16:10;6.30;99.90
27896;DHT22;15241;48.374;10.876;2023-03-14T21:21:09;6.20;99.90
27896;DHT22;15241;48.374;10.876;2023-03-14T21:26:08;6.30;99.90
27896;DHT22;15241;48.374;10.876;2023-03-14T21:31:08;6.20;99.90
27896;DHT22;15241;48.374;10.876;2023-03-14T21:36:08;6.20;99.90
27896;DHT22;15241;48.374;10.876;2023-03-14T21:41:07;6.10;99.90
27896;DHT22;15241;48.374;10.876;2023-03-14T21:46:06;6.00;99.90
27896;DHT22;15241;48.374;10.876;2023-03-14T21:51:06;5.90;99.90
27896;DHT22;15241;48.374;10.876;2023-03-14T21:56:06;5.90;99.90
27896;DHT22;15241;48.374;10.876;2023-03-14T22:01:06;5.80;99.90
27896;DHT22;15241;48.374;10.876;2023-03-14T22:06:06;5.70;99.90
27896;DHT22;15241;48.374;10.876;2023-03-14T22:11:08;5.60;99.90
27896;DHT22;15241;48.374;10.876;2023-03-14T22:16:08;5.60;99.90
27896;DHT22;15241;48.374;10.876;2023-03-14T22:21:07;5.60;99.90
27896;DHT22;15241;48.374;10.876;2023-03-14T22:26:06;5.50;99.90
27896;DHT22;15241;48.374;10.876;2023-03-14T22:31:09;5.50;99.90
27896;DHT22;15241;48.374;10.876;2023-03-14T22:36:11;5.40;99.90
27896;DHT22;15241;48.374;10.876;2023-03-14T22:41:11;5.40;99.90
27896;DHT22;15241;48.374;10.876;2023-03-14T22:46:10;5.40;99.90
27896;DHT22;15241;48.374;10.876;2023-03-14T22:51:10;5.40;99.90
27896;DHT22;15241;48.374;10.876;2023-03-14T22:56:09;5.40;99.90
27896;DHT22;15241;48.374;10.876;2023-03-14T23:06:17;5.60;99.90
27896;DHT22;15241;48.374;10.876;2023-03-14T23:11:16;5.70;99.90
27896;DHT22;15241;48.374;10.876;2023-03-14T23:16:15;5.80;99.90
27896;DHT22;15241;48.374;10.876;2023-03-14T23:21:16;5.80;99.90
27896;DHT22;15241;48.374;10.876;2023-03-14T23:26:17;5.50;99.90
27896;DHT22;15241;48.374;10.876;2023-03-14T23:31:17;5.40;99.90
27896;DHT22;15241;48.374;10.876;2023-03-14T23:36:16;5.30;99.90
27896;DHT22;15241;48.374;10.876;2023-03-14T23:41:15;5.20;99.90
27896;DHT22;15241;48.374;10.876;2023-03-14T23:46:15;4.90;99.90
27896;DHT22;15241;48.374;10.876;2023-03-14T23:51:14;4.80;99.90
27896;DHT22;15241;48.374;10.876;2023-03-14T23:56:15;4.80;99.90
